Accueil
METAR-TAF:

METAR-TAF

Aéroports :

Bolzano, Italie

latitude: 46-28N, longitude: 011-20E, altitude: 262 m

Observation

Le bulletin a été fait il y a 2 heures et 0 minutes, à 13:50 UTC
Vent 1 kt de direction variable
Température 13°C
Humidité 72%
Pression 1012 hPa
Visibilité 10 km ou plus
Nuages fragmentés à une hauteur de 8000 ft

METAR: LIPB 271350Z VRB01KT 9999 BKN080 13/08 Q1012 RMK MON LIB

Heure: 16:50 (15:50 UTC)

Prévision

Le bulletin a été fait il y a 4 heures et 50 minutes, à 11:00 UTC
Prévision valable du 27 à 12 UTC au 28 à 12 UTC
Vent 5 kt de direction variable
Visibilité 10 km ou plus
Nuages épars à une hauteur de 2000 ft
Nuages fragmentés à une hauteur de 6000 ft

TAF: LIPB 271100Z 2712/2812 VRB05KT 9999 SCT020 BKN060

Observations et prévisions météorologiques de plus de 4000 aéroports (messages METAR et TAF).

Les stations disponibles sont représentées par des disques jaunes et rouges sur la carte.

Passer la souris dessus pour voir le nom de la station.

Cliquer dessus pour voir les observations et prévisions météorologiques.

Pour changer de carte: cliquez sur les boutons verts avec une croix noire pour zoomer, sur le bouton vert avec un tiret pour effectuer un zoom arrière, ou sur les flèches vertes pour les cartes adjacentes.


METAR-TAF: